Blue Bay — V2CE6 — position and weather

sailwx.info

Track history (hours):
 
Tides and Currents Weather Stations Pressure Air Temp Water Temp Dewpoint Dewpoint Depression Visibility Wind Speed Wind Dir Waves Ship Positions

Blue Bay

Last reported at 2018-Jul-19 01:30 UTC. Time now 2018-Jul-19 01:33 UTC.
Position N 53°54' E 009°09'.

Length 90 m; draft 5 m.

Type: Cargo ship. MMSI: 304519000.

Date/timePositionNaut miles runAvg speedWind from/ knotsBaromVisibWave heightAir tempDewpointWater temp
2018-Jul-19 01:30N 53°54' E 009°09'3 6.3
2018-Jul-19 01:00N 53°56' E 009°13'4 8.8
2018-Jul-19 00:30N 53°59' E 009°17'3 6.1
2018-Jul-19 00:00N 54°02' E 009°18'2 3.7
2018-Jul-18 23:30N 54°04' E 009°19'4 8.5
2018-Jul-18 23:00N 54°08' E 009°21'4 8.6
2018-Jul-18 22:30N 54°10' E 009°27'4 8.6
2018-Jul-18 22:01N 54°12' E 009°34'4 8.1
2018-Jul-18 21:29N 54°16' E 009°38'24 5.0
2018-Jul-18 16:37N 54°27' E 010°14'2 8.4
2018-Jul-18 16:23N 54°29' E 010°16'410.2
2018-Jul-18 16:00N 54°31' E 010°22'510.4
2018-Jul-18 15:30N 54°33' E 010°30'510.1
2018-Jul-18 15:00N 54°34' E 010°38'510.0
2018-Jul-18 14:30N 54°35' E 010°47'10 9.9
2018-Jul-18 13:30N 54°36' E 011°04'5 9.5
2018-Jul-18 13:00N 54°35' E 011°12'5 9.9
2018-Jul-18 12:30N 54°33' E 011°20'5 9.8
2018-Jul-18 12:00N 54°32' E 011°28'5 9.5
2018-Jul-18 11:30N 54°30' E 011°36'9 9.3
2018-Jul-18 10:29N 54°27' E 011°51'5 9.9
2018-Jul-18 10:00N 54°27' E 011°59'5 9.6
2018-Jul-18 09:30N 54°27' E 012°07'5 9.5
2018-Jul-18 09:01N 54°32' E 012°11'7 9.9
2018-Jul-18 08:18N 54°37' E 012°19'3 9.9
2018-Jul-18 08:00N 54°38' E 012°24'9 9.7
2018-Jul-18 07:02N 54°40' E 012°40'110.0
2018-Jul-18 06:55N 54°40' E 012°42'410.3
2018-Jul-18 06:30N 54°41' E 012°49'4410.2
2018-Jul-18 02:11N 54°43' E 014°05'210.0
2018-Jul-18 02:00N 54°43' E 014°08'610.1
2018-Jul-18 01:25N 54°43' E 014°18'410.2
2018-Jul-18 01:00N 54°43' E 014°25'510.2
2018-Jul-18 00:30N 54°43' E 014°34'510.3
2018-Jul-18 00:00N 54°44' E 014°43'510.4
2018-Jul-17 23:30N 54°44' E 014°52'510.4
2018-Jul-17 23:00N 54°44' E 015°01'510.5
2018-Jul-17 22:29N 54°44' E 015°10'510.3
2018-Jul-17 22:00N 54°45' E 015°19'2210.2
2018-Jul-17 19:51N 54°47' E 015°57'410.2
2018-Jul-17 19:30N 54°48' E 016°03'510.2
2018-Jul-17 19:00N 54°48' E 016°12'510.1
2018-Jul-17 18:30N 54°49' E 016°20'510.2
2018-Jul-17 18:00N 54°49' E 016°29'510.2
2018-Jul-17 17:30N 54°49' E 016°38'510.2
2018-Jul-17 17:00N 54°50' E 016°47'510.2
2018-Jul-17 16:30N 54°51' E 016°56'510.3
2018-Jul-17 16:00N 54°52' E 017°04'510.3
2018-Jul-17 15:30N 54°53' E 017°13'510.3
2018-Jul-17 15:00N 54°54' E 017°22'510.3
2018-Jul-17 14:29N 54°54' E 017°31'510.3
2018-Jul-17 14:00N 54°53' E 017°40'510.3
2018-Jul-17 13:30N 54°53' E 017°49'510.2
2018-Jul-17 13:00N 54°53' E 017°58'510.2
2018-Jul-17 12:30N 54°52' E 018°07'510.2
2018-Jul-17 12:00N 54°52' E 018°15'510.2
2018-Jul-17 11:30N 54°52' E 018°24'5 9.9
2018-Jul-17 11:00N 54°50' E 018°32'510.2
2018-Jul-17 10:30N 54°48' E 018°40'510.2
2018-Jul-17 10:00N 54°46' E 018°48'510.2
2018-Jul-17 09:30N 54°43' E 018°55'4 8.5
2018-Jul-17 09:00N 54°39' E 018°56'510.1
2018-Jul-17 08:30N 54°34' E 018°52'5 9.3
2018-Jul-17 08:00N 54°32' E 018°45'510.1
2018-Jul-17 07:29N 54°32' E 018°36'2 4.7
2018-Jul-17 06:58N 54°32' E 018°32'0 0.0
2018-Jul-17 06:28N 54°32' E 018°32'0 0.0
2018-Jul-17 05:58N 54°32' E 018°32'0 0.0
2018-Jul-17 05:28N 54°32' E 018°32'0 0.0
2018-Jul-17 04:58N 54°32' E 018°32'0 0.0
2018-Jul-17 04:28N 54°32' E 018°32'0 0.0
2018-Jul-17 03:58N 54°32' E 018°32'0 0.0
2018-Jul-17 03:28N 54°32' E 018°32'0 0.0
2018-Jul-17 02:58N 54°32' E 018°32'0 0.0
2018-Jul-17 02:28N 54°32' E 018°32'0 0.0
2018-Jul-17 01:58N 54°32' E 018°32'0 0.0
2018-Jul-17 01:28N 54°32' E 018°32'0 0.0
2018-Jul-17 00:58N 54°32' E 018°32'0 0.0
2018-Jul-17 00:28N 54°32' E 018°32'0 0.0
2018-Jul-16 23:28N 54°32' E 018°32'0 0.0
2018-Jul-16 22:58N 54°32' E 018°32'0 0.0
2018-Jul-16 22:28N 54°32' E 018°32'0 0.0
2018-Jul-16 21:58N 54°32' E 018°32'0 0.0
2018-Jul-16 21:28N 54°32' E 018°32'0 0.0
2018-Jul-16 20:58N 54°32' E 018°32'0 0.0
2018-Jul-16 20:28N 54°32' E 018°32'0 0.0
2018-Jul-16 19:58N 54°32' E 018°32'0 0.0
2018-Jul-16 19:28N 54°32' E 018°32'0 0.0
2018-Jul-16 18:58N 54°32' E 018°32'0 0.0
2018-Jul-16 18:28N 54°32' E 018°32'0 0.0
2018-Jul-16 17:58N 54°32' E 018°32'0 0.0
2018-Jul-16 17:28N 54°32' E 018°32'0 0.0
2018-Jul-16 16:58N 54°32' E 018°32'0 0.0
2018-Jul-16 16:28N 54°32' E 018°32'0 0.0
2018-Jul-16 15:58N 54°32' E 018°32'0 0.0
2018-Jul-16 15:28N 54°32' E 018°32'0 0.0
2018-Jul-16 14:58N 54°32' E 018°32'0 0.0
2018-Jul-16 14:28N 54°32' E 018°32'0 0.0
2018-Jul-16 13:58N 54°32' E 018°32'0 0.0
2018-Jul-16 13:28N 54°32' E 018°32'0 0.0
2018-Jul-16 12:58N 54°32' E 018°32'0 0.0
2018-Jul-16 12:28N 54°32' E 018°32'0 0.0
2018-Jul-16 11:58N 54°32' E 018°32'0 0.0
2018-Jul-16 11:28N 54°32' E 018°32'0 0.0
2018-Jul-16 10:58N 54°32' E 018°32'0 0.0
2018-Jul-16 10:28N 54°32' E 018°32'0 0.0
2018-Jul-16 09:58N 54°32' E 018°32'0 0.0
2018-Jul-16 09:28N 54°32' E 018°32'2 4.0
2018-Jul-16 09:00N 54°32' E 018°36'1 1.9
2018-Jul-16 08:28N 54°31' E 018°37'0 0.0
2018-Jul-16 07:58N 54°31' E 018°37'0 0.1
2018-Jul-16 07:29N 54°31' E 018°37'0 0.1
2018-Jul-16 06:59N 54°31' E 018°37'0 0.0
2018-Jul-16 06:28N 54°31' E 018°37'0 0.0
2018-Jul-16 05:58N 54°31' E 018°37'0 0.1
2018-Jul-16 05:28N 54°31' E 018°37'0 0.0
2018-Jul-16 04:58N 54°31' E 018°37'0 0.0
2018-Jul-16 04:29N 54°31' E 018°37'0 0.0
2018-Jul-16 03:58N 54°31' E 018°37'0 0.0
2018-Jul-16 03:28N 54°31' E 018°37'0 0.1
2018-Jul-16 02:58N 54°31' E 018°37'0 0.1
2018-Jul-16 02:28N 54°31' E 018°37'0 0.1
2018-Jul-16 01:58N 54°31' E 018°37'0 0.0
2018-Jul-16 01:28N 54°31' E 018°37'0 0.0
2018-Jul-16 00:58N 54°31' E 018°37'0 0.0
2018-Jul-16 00:28N 54°31' E 018°37'0 0.1
2018-Jul-15 23:58N 54°31' E 018°37'0 0.1
2018-Jul-15 23:29N 54°31' E 018°37'0 0.0
2018-Jul-15 22:58N 54°31' E 018°37'0 0.1
2018-Jul-15 22:28N 54°31' E 018°37'0 0.0
2018-Jul-15 21:58N 54°31' E 018°37'0 0.0
2018-Jul-15 21:28N 54°31' E 018°37'0 0.0
2018-Jul-15 20:59N 54°31' E 018°37'0 0.0
2018-Jul-15 20:28N 54°31' E 018°37'0 0.0
2018-Jul-15 19:58N 54°31' E 018°37'0 0.0
2018-Jul-15 19:28N 54°31' E 018°37'0 0.0
2018-Jul-15 18:58N 54°31' E 018°37'0 0.0
2018-Jul-15 18:28N 54°31' E 018°37'0 0.0
2018-Jul-15 17:58N 54°31' E 018°37'0 0.0
2018-Jul-15 17:28N 54°31' E 018°37'0 0.0
2018-Jul-15 16:58N 54°31' E 018°37'0 0.0
2018-Jul-15 16:28N 54°31' E 018°37'0 0.1
2018-Jul-15 15:58N 54°31' E 018°37'0 0.1
2018-Jul-15 15:28N 54°31' E 018°37'0 0.0
2018-Jul-15 14:58N 54°31' E 018°37'0 0.1
2018-Jul-15 14:25N 54°31' E 018°37'0 0.0
2018-Jul-15 13:58N 54°31' E 018°37'0 0.1
2018-Jul-15 13:28N 54°31' E 018°37'0 0.1
2018-Jul-15 12:58N 54°31' E 018°37'0 0.1
2018-Jul-15 12:28N 54°31' E 018°37'0 0.1
2018-Jul-15 11:58N 54°31' E 018°37'0 0.0
2018-Jul-15 11:25N 54°31' E 018°37'0 0.0
2018-Jul-15 10:58N 54°31' E 018°37'0 0.1
2018-Jul-15 10:28N 54°31' E 018°37'0 0.1
2018-Jul-15 09:58N 54°31' E 018°37'0 0.0
2018-Jul-15 09:28N 54°31' E 018°37'0 0.0
2018-Jul-15 08:58N 54°31' E 018°37'0 0.0
2018-Jul-15 08:28N 54°31' E 018°37'0 0.1
2018-Jul-15 07:58N 54°31' E 018°37'0 0.0
2018-Jul-15 07:28N 54°31' E 018°37'0 0.0
2018-Jul-15 06:58N 54°31' E 018°37'0 0.1
2018-Jul-15 06:28N 54°31' E 018°37'0 0.0
2018-Jul-15 05:55N 54°31' E 018°37'0 0.1
2018-Jul-15 05:28N 54°31' E 018°37'0 0.1
2018-Jul-15 04:58N 54°31' E 018°37'0 0.1
2018-Jul-15 04:28N 54°31' E 018°37'0 0.0
2018-Jul-15 03:58N 54°31' E 018°37'0 0.0
2018-Jul-15 03:25N 54°31' E 018°37'0 0.0
2018-Jul-15 02:58N 54°31' E 018°37'0 0.0
2018-Jul-15 02:28N 54°31' E 018°37'0 0.0
2018-Jul-15 01:55N 54°31' E 018°37'0 0.1
2018-Jul-15 01:28N 54°31' E 018°37'0 0.1
2018-Jul-15 00:58N 54°31' E 018°37'0 0.1
2018-Jul-15 00:28N 54°31' E 018°37'0 0.0
2018-Jul-14 23:58N 54°31' E 018°37'0 0.1
2018-Jul-14 23:25N 54°31' E 018°37'0 0.1
2018-Jul-14 22:58N 54°31' E 018°37'0 0.1
2018-Jul-14 22:28N 54°31' E 018°37'0 0.1
2018-Jul-14 21:58N 54°31' E 018°37'0 0.1
2018-Jul-14 21:30N 54°31' E 018°37'0 0.0
2018-Jul-14 20:58N 54°31' E 018°37'0 0.1
2018-Jul-14 20:28N 54°31' E 018°37'0 0.1
2018-Jul-14 19:55N 54°31' E 018°37'0 0.1
2018-Jul-14 19:28N 54°31' E 018°37'0 0.1
2018-Jul-14 18:55N 54°31' E 018°37'0 0.2
2018-Jul-14 18:30N 54°31' E 018°37'4 8.6
2018-Jul-14 18:00N 54°32' E 018°44'5 9.5
2018-Jul-14 17:30N 54°34' E 018°51'510.7
2018-Jul-14 17:00N 54°39' E 018°55'4 6.9
2018-Jul-14 16:29N 54°43' E 018°53'3 6.7
2018-Jul-14 16:00N 54°45' E 018°50'3 6.7
2018-Jul-14 15:30N 54°47' E 018°45'3 6.8
2018-Jul-14 15:00N 54°50' E 018°41'3 6.9
2018-Jul-14 14:30N 54°52' E 018°36'6 6.4
2018-Jul-14 13:30N 54°53' E 018°25'3 6.5
2018-Jul-14 13:00N 54°53' E 018°20'3 6.6
2018-Jul-14 12:30N 54°53' E 018°14'3 6.5
2018-Jul-14 12:00N 54°53' E 018°08'3 6.5
2018-Jul-14 11:30N 54°53' E 018°03'3 6.5
2018-Jul-14 11:00N 54°52' E 017°57'3 6.5
2018-Jul-14 10:30N 54°52' E 017°52'3 6.4
2018-Jul-14 10:00N 54°52' E 017°46'3 6.5
2018-Jul-14 09:30N 54°52' E 017°40'3 6.5
2018-Jul-14 09:00N 54°52' E 017°35'3 6.7
2018-Jul-14 08:30N 54°52' E 017°29'3 6.6
2018-Jul-14 08:00N 54°52' E 017°23'3 6.6
2018-Jul-14 07:30N 54°51' E 017°18'3 6.2
2018-Jul-14 07:00N 54°51' E 017°12'3 5.7
2018-Jul-14 06:28N 54°50' E 017°07'3 5.7
2018-Jul-14 05:59N 54°49' E 017°02'3 5.7
2018-Jul-14 05:30N 54°49' E 016°58'3 5.7
2018-Jul-14 05:00N 54°48' E 016°53'3 5.8
2018-Jul-14 04:30N 54°48' E 016°48'3 5.9
2018-Jul-14 04:00N 54°47' E 016°43'3 5.9
2018-Jul-14 03:30N 54°46' E 016°38'3 5.9
2018-Jul-14 03:00N 54°46' E 016°33'3 5.9
2018-Jul-14 02:30N 54°46' E 016°28'3 5.9
2018-Jul-14 02:00N 54°45' E 016°23'3 5.9
2018-Jul-14 01:30N 54°45' E 016°18'3 5.8
2018-Jul-14 01:00N 54°45' E 016°13'3 5.8
2018-Jul-14 00:30N 54°44' E 016°08'6 5.8
2018-Jul-13 23:29N 54°44' E 015°58'3 5.8
2018-Jul-13 23:00N 54°44' E 015°53'3 5.9
2018-Jul-13 22:30N 54°45' E 015°48'3 6.0
2018-Jul-13 22:00N 54°45' E 015°42'3 6.1
2018-Jul-13 21:29N 54°46' E 015°37'4 6.1
2018-Jul-13 20:50N 54°46' E 015°30'3 6.1
2018-Jul-13 20:23N 54°46' E 015°26'2 6.1
2018-Jul-13 20:00N 54°45' E 015°21'3 6.0
2018-Jul-13 19:30N 54°45' E 015°16'3 5.9
2018-Jul-13 19:00N 54°45' E 015°11'3 5.9
2018-Jul-13 18:30N 54°45' E 015°06'3 5.9
2018-Jul-13 18:00N 54°45' E 015°01'3 5.8
2018-Jul-13 17:30N 54°45' E 014°56'3 5.7
2018-Jul-13 17:00N 54°44' E 014°51'3 5.7
2018-Jul-13 16:30N 54°44' E 014°46'3 5.7
2018-Jul-13 16:00N 54°44' E 014°41'3 5.7
2018-Jul-13 15:30N 54°44' E 014°36'3 5.8
2018-Jul-13 15:00N 54°44' E 014°31'3 5.9
2018-Jul-13 14:30N 54°44' E 014°26'6 5.9
2018-Jul-13 13:30N 54°44' E 014°16'3 6.0
2018-Jul-13 13:00N 54°44' E 014°11'4 6.1
2018-Jul-13 12:23N 54°43' E 014°04'3 5.9
2018-Jul-13 11:48N 54°44' E 013°58'2 6.3
2018-Jul-13 11:29N 54°45' E 013°55'5 6.1
2018-Jul-13 10:41N 54°48' E 013°48'2 6.0
2018-Jul-13 10:18N 54°50' E 013°45'2 6.1
2018-Jul-13 10:00N 54°51' E 013°43'3 6.1
2018-Jul-13 09:29N 54°53' E 013°39'14 6.8
2018-Jul-13 07:26N 55°02' E 013°20'4 6.2
2018-Jul-13 06:48N 55°04' E 013°15'2 6.1
2018-Jul-13 06:25N 55°06' E 013°12'2 6.0
2018-Jul-13 06:00N 55°07' E 013°08'3 5.8
2018-Jul-13 05:30N 55°09' E 013°04'510.0
2018-Jul-13 05:00N 55°12' E 012°57'510.5
2018-Jul-13 04:30N 55°15' E 012°50'510.2
2018-Jul-13 04:00N 55°17' E 012°42'5 9.2
2018-Jul-13 03:30N 55°22' E 012°39'510.8
2018-Jul-13 03:00N 55°27' E 012°40'510.6
2018-Jul-13 02:30N 55°32' E 012°42'510.3
2018-Jul-13 02:00N 55°37' E 012°42'510.4
2018-Jul-13 01:30N 55°42' E 012°41'510.4
2018-Jul-13 01:00N 55°48' E 012°41'510.2
2018-Jul-13 00:30N 55°53' E 012°39'510.2
2018-Jul-13 00:00N 55°58' E 012°38'510.0
2018-Jul-12 23:30N 56°03' E 012°38'4 8.7
2018-Jul-12 23:00N 56°06' E 012°33'5 9.3
2018-Jul-12 22:30N 56°09' E 012°26'5 9.5
2018-Jul-12 21:59N 56°12' E 012°19'4 9.2
2018-Jul-12 21:30N 56°14' E 012°12'5 9.7
2018-Jul-12 21:00N 56°17' E 012°06'510.6
2018-Jul-12 20:30N 56°22' E 012°02'611.1
2018-Jul-12 20:00N 56°27' E 011°59'611.3
2018-Jul-12 19:29N 56°33' E 011°56'511.2
2018-Jul-12 19:00N 56°38' E 011°54'611.3
2018-Jul-12 18:29N 56°44' E 011°51'511.5
2018-Jul-12 18:00N 56°49' E 011°49'611.2
2018-Jul-12 17:30N 56°54' E 011°46'611.3
2018-Jul-12 17:00N 56°60' E 011°42'611.3
2018-Jul-12 16:30N 57°05' E 011°39'611.3
2018-Jul-12 16:00N 57°10' E 011°35'611.4
2018-Jul-12 15:30N 57°16' E 011°31'611.1
2018-Jul-12 15:00N 57°21' E 011°28'510.5
2018-Jul-12 14:30N 57°26' E 011°24'510.2
2018-Jul-12 14:00N 57°30' E 011°19'510.2
2018-Jul-12 13:30N 57°34' E 011°12'510.3
2018-Jul-12 13:00N 57°37' E 011°05'510.3
2018-Jul-12 12:30N 57°40' E 010°58'510.4
2018-Jul-12 12:00N 57°44' E 010°51'510.5
2018-Jul-12 11:30N 57°46' E 010°42'611.0
2018-Jul-12 11:00N 57°47' E 010°32'611.4
2018-Jul-12 10:30N 57°47' E 010°21'611.4
2018-Jul-12 10:00N 57°47' E 010°10'611.7
2018-Jul-12 09:30N 57°48' E 009°59'511.0
2018-Jul-12 09:00N 57°49' E 009°49'610.9
2018-Jul-12 08:28N 57°50' E 009°39'511.2
2018-Jul-12 08:00N 57°50' E 009°29'711.4
2018-Jul-12 07:24N 57°51' E 009°16'511.5
2018-Jul-12 07:00N 57°51' E 009°07'611.4
2018-Jul-12 06:28N 57°51' E 008°56'611.1
2018-Jul-12 05:56N 57°52' E 008°45'510.8
2018-Jul-12 05:27N 57°52' E 008°35'510.5
2018-Jul-12 05:00N 57°53' E 008°26'510.5
2018-Jul-12 04:30N 57°53' E 008°16'510.0
2018-Jul-12 04:00N 57°53' E 008°07'5 9.6
2018-Jul-12 03:30N 57°54' E 007°58'5 9.5
2018-Jul-12 03:00N 57°54' E 007°49'5 9.5
2018-Jul-12 02:30N 57°55' E 007°40'5 9.6
2018-Jul-12 02:00N 57°55' E 007°31'5 9.8
2018-Jul-12 01:30N 57°55' E 007°22'510.0
2018-Jul-12 01:00N 57°55' E 007°12'510.0
2018-Jul-12 00:30N 57°56' E 007°03'5 9.7
2018-Jul-12 00:00N 57°57' E 006°54'5 9.5
2018-Jul-11 23:30N 57°58' E 006°46'5 9.4
2018-Jul-11 23:00N 58°00' E 006°38'5 9.4
2018-Jul-11 22:29N 58°03' E 006°30'5 9.4
2018-Jul-11 22:00N 58°06' E 006°24'5 9.4
2018-Jul-11 21:30N 58°10' E 006°18'5 9.1
2018-Jul-11 21:00N 58°13' E 006°12'4 9.0
2018-Jul-11 20:30N 58°16' E 006°05'5 9.2
2018-Jul-11 20:00N 58°19' E 005°59'4 8.7
2018-Jul-11 19:29N 58°23' E 005°54'4 8.6
2018-Jul-11 19:00N 58°26' E 005°48'4 8.7
2018-Jul-11 18:30N 58°29' E 005°43'4 8.7
2018-Jul-11 18:00N 58°32' E 005°37'4 8.4
2018-Jul-11 17:30N 58°35' E 005°32'510.0
2018-Jul-11 17:00N 58°40' E 005°27'510.7
2018-Jul-11 16:30N 58°44' E 005°22'4 7.9
2018-Jul-11 16:00N 58°47' E 005°17'3 6.2
2018-Jul-11 15:30N 58°50' E 005°14'3 6.8
2018-Jul-11 15:00N 58°53' E 005°10'3 6.8
2018-Jul-11 14:30N 58°55' E 005°07'3 6.9
2018-Jul-11 14:00N 58°58' E 005°03'3 6.7
2018-Jul-11 13:30N 59°01' E 005°00'3 6.8
2018-Jul-11 13:00N 59°04' E 004°57'3 6.8
2018-Jul-11 12:29N 59°07' E 004°53'3 6.8
2018-Jul-11 12:00N 59°10' E 004°49'3 7.0
2018-Jul-11 11:30N 59°13' E 004°45'4 6.5
2018-Jul-11 10:57N 59°16' E 004°42'4 6.8
2018-Jul-11 10:19N 59°20' E 004°42'3 6.7
2018-Jul-11 09:53N 59°23' E 004°42'13 6.8
2018-Jul-11 08:01N 59°36' E 004°40'011.9
2018-Jul-11 07:59N 59°36' E 004°41'612.1
2018-Jul-11 07:30N 59°42' E 004°41'611.5
2018-Jul-11 07:00N 59°48' E 004°41'611.0
2018-Jul-11 06:30N 59°53' E 004°40'510.7
2018-Jul-11 06:00N 59°59' E 004°39'510.8
2018-Jul-11 05:30N 60°04' E 004°39'510.7
2018-Jul-11 05:00N 60°09' E 004°38'510.5
2018-Jul-11 04:29N 60°15' E 004°36'510.6
2018-Jul-11 04:00N 60°20' E 004°34'610.9
2018-Jul-11 03:29N 60°25' E 004°32'510.7
2018-Jul-11 02:59N 60°31' E 004°30'510.6
2018-Jul-11 02:30N 60°35' E 004°28'510.5
2018-Jul-11 01:59N 60°41' E 004°25'510.8
2018-Jul-11 01:30N 60°46' E 004°23'510.8
2018-Jul-11 01:00N 60°51' E 004°20'510.6
2018-Jul-11 00:30N 60°56' E 004°18'510.6
2018-Jul-11 00:00N 61°02' E 004°19'510.7
2018-Jul-10 23:30N 61°07' E 004°21'510.5
2018-Jul-10 23:00N 61°12' E 004°23'510.9
2018-Jul-10 22:30N 61°17' E 004°25'510.9
2018-Jul-10 22:00N 61°23' E 004°27'610.9
2018-Jul-10 21:30N 61°28' E 004°28'510.9
2018-Jul-10 21:00N 61°34' E 004°29'611.0
2018-Jul-10 20:29N 61°39' E 004°31'511.0
2018-Jul-10 20:00N 61°44' E 004°35'610.9
2018-Jul-10 19:30N 61°49' E 004°39'611.1
2018-Jul-10 19:00N 61°55' E 004°43'511.0
2018-Jul-10 18:30N 61°60' E 004°47'611.2
2018-Jul-10 18:00N 62°05' E 004°52'611.3
2018-Jul-10 17:30N 62°10' E 004°57'611.0
2018-Jul-10 17:00N 62°15' E 005°03'510.8
2018-Jul-10 16:30N 62°19' E 005°11'510.8
2018-Jul-10 16:00N 62°23' E 005°19'611.2
2018-Jul-10 15:30N 62°27' E 005°27'510.9
2018-Jul-10 15:00N 62°30' E 005°36'610.7
2018-Jul-10 14:29N 62°28' E 005°47'5 9.4
2018-Jul-10 14:00N 62°27' E 005°57'4 7.4
2018-Jul-10 13:30N 62°28' E 006°04'4 7.6
2018-Jul-10 13:00N 62°32' E 006°08'0 0.0
2018-Jul-10 12:30N 62°32' E 006°08'0 0.0
2018-Jul-10 12:00N 62°32' E 006°08'0 0.0
2018-Jul-10 11:30N 62°32' E 006°08'0 0.0
2018-Jul-10 11:00N 62°32' E 006°08'0 0.0
2018-Jul-10 10:30N 62°32' E 006°08'0 0.0
2018-Jul-10 10:00N 62°32' E 006°08'0 0.0
2018-Jul-10 09:30N 62°32' E 006°08'0 0.0
2018-Jul-10 09:00N 62°32' E 006°08'0 0.0
2018-Jul-10 08:30N 62°32' E 006°08'0 0.0
2018-Jul-10 08:00N 62°32' E 006°08'0 0.0
2018-Jul-10 07:30N 62°32' E 006°08'0 0.0
2018-Jul-10 07:00N 62°32' E 006°08'0 0.0
2018-Jul-10 06:30N 62°32' E 006°08'0 0.0
2018-Jul-10 06:00N 62°32' E 006°08'0 0.0
2018-Jul-10 05:30N 62°32' E 006°08'0 0.0
2018-Jul-10 05:00N 62°32' E 006°08'0 0.0
2018-Jul-10 04:30N 62°32' E 006°08'0 0.0
2018-Jul-10 04:00N 62°32' E 006°08'0 0.0
2018-Jul-10 03:30N 62°32' E 006°08'0 0.0
2018-Jul-10 03:00N 62°32' E 006°08'0 0.0
2018-Jul-10 02:30N 62°32' E 006°08'0 0.0
2018-Jul-10 02:00N 62°32' E 006°08'0 0.0
2018-Jul-10 01:30N 62°32' E 006°08'0 0.0
2018-Jul-10 01:00N 62°32' E 006°08'0 0.0
2018-Jul-10 00:30N 62°32' E 006°08'0 0.0
2018-Jul-10 00:00N 62°32' E 006°08'0 0.0
2018-Jul-09 23:30N 62°32' E 006°08'0 0.0
2018-Jul-09 23:00N 62°32' E 006°08'0 0.0
2018-Jul-09 22:30N 62°32' E 006°08'0 0.0
2018-Jul-09 22:00N 62°32' E 006°08'0 0.0
2018-Jul-09 21:30N 62°32' E 006°08'0 0.0
2018-Jul-09 21:00N 62°32' E 006°08'0 0.0
2018-Jul-09 20:30N 62°32' E 006°08'0 0.0
2018-Jul-09 20:00N 62°32' E 006°08'0 0.0
2018-Jul-09 19:30N 62°32' E 006°08'0 0.0
2018-Jul-09 19:00N 62°32' E 006°08'0 0.0
2018-Jul-09 18:30N 62°32' E 006°08'0 0.0
2018-Jul-09 18:00N 62°32' E 006°08'0 0.0
2018-Jul-09 17:30N 62°32' E 006°08'0 0.0
2018-Jul-09 17:00N 62°32' E 006°08'0 0.0
2018-Jul-09 16:30N 62°32' E 006°08'0 0.0
2018-Jul-09 16:00N 62°32' E 006°08'0 0.0
2018-Jul-09 15:30N 62°32' E 006°08'0 0.0
2018-Jul-09 15:00N 62°32' E 006°08'0 0.0
2018-Jul-09 14:30N 62°32' E 006°08'0 0.0
2018-Jul-09 14:00N 62°32' E 006°08'0 0.0
2018-Jul-09 13:30N 62°32' E 006°08'0 0.0
2018-Jul-09 13:00N 62°32' E 006°08'0 0.0
2018-Jul-09 12:30N 62°32' E 006°08'0 0.0
2018-Jul-09 12:00N 62°32' E 006°08'0 0.0
2018-Jul-09 11:30N 62°32' E 006°08'0 0.0
2018-Jul-09 11:00N 62°32' E 006°08'0 0.0
2018-Jul-09 10:30N 62°32' E 006°08'0 0.0
2018-Jul-09 10:00N 62°32' E 006°08'0 0.0
2018-Jul-09 09:30N 62°32' E 006°08'0 0.0
2018-Jul-09 09:00N 62°32' E 006°08'0 0.0
2018-Jul-09 08:30N 62°32' E 006°08'0 0.0
2018-Jul-09 08:00N 62°32' E 006°08'0 0.0
2018-Jul-09 07:30N 62°32' E 006°08'0 0.0
2018-Jul-09 07:00N 62°32' E 006°08'0 0.0
2018-Jul-09 06:30N 62°32' E 006°08'0 0.0
2018-Jul-09 06:00N 62°32' E 006°08'1 1.3
2018-Jul-09 05:30N 62°31' E 006°09'5 9.5
2018-Jul-09 05:00N 62°27' E 006°02'1 2.8
2018-Jul-09 04:30N 62°27' E 005°59'1 1.8
2018-Jul-09 04:00N 62°27' E 005°57'3 5.3
2018-Jul-09 03:30N 62°28' E 005°52'3 5.7
2018-Jul-09 03:00N 62°29' E 005°46'3 5.5
2018-Jul-09 02:30N 62°30' E 005°41'3 5.3
2018-Jul-09 02:00N 62°31' E 005°35'  
Track history (hours):
 
Tides and Currents Weather Stations Pressure Air Temp Water Temp Dewpoint Dewpoint Depression Visibility Wind Speed Wind Dir Waves Ship Positions

Blue Bay

Last reported at 2018-Jul-19 01:30 UTC. Time now 2018-Jul-19 01:33 UTC.
Position N 53°54' E 009°09'.

Length 90 m; draft 5 m.

Type: Cargo ship. MMSI: 304519000.

Date/timePositionNaut miles runAvg speedWind from/ knotsBaromVisibWave heightAir tempDewpointWater temp
2018-Jul-19 01:30N 53°54' E 009°09'3 6.3
2018-Jul-19 01:00N 53°56' E 009°13'4 8.8
2018-Jul-19 00:30N 53°59' E 009°17'3 6.1
2018-Jul-19 00:00N 54°02' E 009°18'2 3.7
2018-Jul-18 23:30N 54°04' E 009°19'4 8.5
2018-Jul-18 23:00N 54°08' E 009°21'4 8.6
2018-Jul-18 22:30N 54°10' E 009°27'4 8.6
2018-Jul-18 22:01N 54°12' E 009°34'4 8.1
2018-Jul-18 21:29N 54°16' E 009°38'24 5.0
2018-Jul-18 16:37N 54°27' E 010°14'2 8.4
2018-Jul-18 16:23N 54°29' E 010°16'410.2
2018-Jul-18 16:00N 54°31' E 010°22'510.4
2018-Jul-18 15:30N 54°33' E 010°30'510.1
2018-Jul-18 15:00N 54°34' E 010°38'510.0
2018-Jul-18 14:30N 54°35' E 010°47'10 9.9
2018-Jul-18 13:30N 54°36' E 011°04'5 9.5
2018-Jul-18 13:00N 54°35' E 011°12'5 9.9
2018-Jul-18 12:30N 54°33' E 011°20'5 9.8
2018-Jul-18 12:00N 54°32' E 011°28'5 9.5
2018-Jul-18 11:30N 54°30' E 011°36'9 9.3
2018-Jul-18 10:29N 54°27' E 011°51'5 9.9
2018-Jul-18 10:00N 54°27' E 011°59'5 9.6
2018-Jul-18 09:30N 54°27' E 012°07'5 9.5
2018-Jul-18 09:01N 54°32' E 012°11'7 9.9
2018-Jul-18 08:18N 54°37' E 012°19'3 9.9
2018-Jul-18 08:00N 54°38' E 012°24'9 9.7
2018-Jul-18 07:02N 54°40' E 012°40'110.0
2018-Jul-18 06:55N 54°40' E 012°42'410.3
2018-Jul-18 06:30N 54°41' E 012°49'4410.2
2018-Jul-18 02:11N 54°43' E 014°05'210.0
2018-Jul-18 02:00N 54°43' E 014°08'610.1
2018-Jul-18 01:25N 54°43' E 014°18'410.2
2018-Jul-18 01:00N 54°43' E 014°25'510.2
2018-Jul-18 00:30N 54°43' E 014°34'510.3
2018-Jul-18 00:00N 54°44' E 014°43'510.4
2018-Jul-17 23:30N 54°44' E 014°52'510.4
2018-Jul-17 23:00N 54°44' E 015°01'510.5
2018-Jul-17 22:29N 54°44' E 015°10'510.3
2018-Jul-17 22:00N 54°45' E 015°19'2210.2
2018-Jul-17 19:51N 54°47' E 015°57'410.2
2018-Jul-17 19:30N 54°48' E 016°03'510.2
2018-Jul-17 19:00N 54°48' E 016°12'510.1
2018-Jul-17 18:30N 54°49' E 016°20'510.2
2018-Jul-17 18:00N 54°49' E 016°29'510.2
2018-Jul-17 17:30N 54°49' E 016°38'510.2
2018-Jul-17 17:00N 54°50' E 016°47'510.2
2018-Jul-17 16:30N 54°51' E 016°56'510.3
2018-Jul-17 16:00N 54°52' E 017°04'510.3
2018-Jul-17 15:30N 54°53' E 017°13'510.3
2018-Jul-17 15:00N 54°54' E 017°22'510.3
2018-Jul-17 14:29N 54°54' E 017°31'510.3
2018-Jul-17 14:00N 54°53' E 017°40'510.3
2018-Jul-17 13:30N 54°53' E 017°49'510.2
2018-Jul-17 13:00N 54°53' E 017°58'510.2
2018-Jul-17 12:30N 54°52' E 018°07'510.2
2018-Jul-17 12:00N 54°52' E 018°15'510.2
2018-Jul-17 11:30N 54°52' E 018°24'5 9.9
2018-Jul-17 11:00N 54°50' E 018°32'510.2
2018-Jul-17 10:30N 54°48' E 018°40'510.2
2018-Jul-17 10:00N 54°46' E 018°48'510.2
2018-Jul-17 09:30N 54°43' E 018°55'4 8.5
2018-Jul-17 09:00N 54°39' E 018°56'510.1
2018-Jul-17 08:30N 54°34' E 018°52'5 9.3
2018-Jul-17 08:00N 54°32' E 018°45'510.1
2018-Jul-17 07:29N 54°32' E 018°36'2 4.7
2018-Jul-17 06:58N 54°32' E 018°32'0 0.0
2018-Jul-17 06:28N 54°32' E 018°32'0 0.0
2018-Jul-17 05:58N 54°32' E 018°32'0 0.0
2018-Jul-17 05:28N 54°32' E 018°32'0 0.0
2018-Jul-17 04:58N 54°32' E 018°32'0 0.0
2018-Jul-17 04:28N 54°32' E 018°32'0 0.0
2018-Jul-17 03:58N 54°32' E 018°32'0 0.0
2018-Jul-17 03:28N 54°32' E 018°32'0 0.0
2018-Jul-17 02:58N 54°32' E 018°32'0 0.0
2018-Jul-17 02:28N 54°32' E 018°32'0 0.0
2018-Jul-17 01:58N 54°32' E 018°32'0 0.0
2018-Jul-17 01:28N 54°32' E 018°32'0 0.0
2018-Jul-17 00:58N 54°32' E 018°32'0 0.0
2018-Jul-17 00:28N 54°32' E 018°32'0 0.0
2018-Jul-16 23:28N 54°32' E 018°32'0 0.0
2018-Jul-16 22:58N 54°32' E 018°32'0 0.0
2018-Jul-16 22:28N 54°32' E 018°32'0 0.0
2018-Jul-16 21:58N 54°32' E 018°32'0 0.0
2018-Jul-16 21:28N 54°32' E 018°32'0 0.0
2018-Jul-16 20:58N 54°32' E 018°32'0 0.0
2018-Jul-16 20:28N 54°32' E 018°32'0 0.0
2018-Jul-16 19:58N 54°32' E 018°32'0 0.0
2018-Jul-16 19:28N 54°32' E 018°32'0 0.0
2018-Jul-16 18:58N 54°32' E 018°32'0 0.0
2018-Jul-16 18:28N 54°32' E 018°32'0 0.0
2018-Jul-16 17:58N 54°32' E 018°32'0 0.0
2018-Jul-16 17:28N 54°32' E 018°32'0 0.0
2018-Jul-16 16:58N 54°32' E 018°32'0 0.0
2018-Jul-16 16:28N 54°32' E 018°32'0 0.0
2018-Jul-16 15:58N 54°32' E 018°32'0 0.0
2018-Jul-16 15:28N 54°32' E 018°32'0 0.0
2018-Jul-16 14:58N 54°32' E 018°32'0 0.0
2018-Jul-16 14:28N 54°32' E 018°32'0 0.0
2018-Jul-16 13:58N 54°32' E 018°32'0 0.0
2018-Jul-16 13:28N 54°32' E 018°32'0 0.0
2018-Jul-16 12:58N 54°32' E 018°32'0 0.0
2018-Jul-16 12:28N 54°32' E 018°32'0 0.0
2018-Jul-16 11:58N 54°32' E 018°32'0 0.0
2018-Jul-16 11:28N 54°32' E 018°32'0 0.0
2018-Jul-16 10:58N 54°32' E 018°32'0 0.0
2018-Jul-16 10:28N 54°32' E 018°32'0 0.0
2018-Jul-16 09:58N 54°32' E 018°32'0 0.0
2018-Jul-16 09:28N 54°32' E 018°32'2 4.0
2018-Jul-16 09:00N 54°32' E 018°36'1 1.9
2018-Jul-16 08:28N 54°31' E 018°37'0 0.0
2018-Jul-16 07:58N 54°31' E 018°37'0 0.1
2018-Jul-16 07:29N 54°31' E 018°37'0 0.1
2018-Jul-16 06:59N 54°31' E 018°37'0 0.0
2018-Jul-16 06:28N 54°31' E 018°37'0 0.0
2018-Jul-16 05:58N 54°31' E 018°37'0 0.1
2018-Jul-16 05:28N 54°31' E 018°37'0 0.0
2018-Jul-16 04:58N 54°31' E 018°37'0 0.0
2018-Jul-16 04:29N 54°31' E 018°37'0 0.0
2018-Jul-16 03:58N 54°31' E 018°37'0 0.0
2018-Jul-16 03:28N 54°31' E 018°37'0 0.1
2018-Jul-16 02:58N 54°31' E 018°37'0 0.1
2018-Jul-16 02:28N 54°31' E 018°37'0 0.1
2018-Jul-16 01:58N 54°31' E 018°37'0 0.0
2018-Jul-16 01:28N 54°31' E 018°37'0 0.0
2018-Jul-16 00:58N 54°31' E 018°37'0 0.0
2018-Jul-16 00:28N 54°31' E 018°37'0 0.1
2018-Jul-15 23:58N 54°31' E 018°37'0 0.1
2018-Jul-15 23:29N 54°31' E 018°37'0 0.0
2018-Jul-15 22:58N 54°31' E 018°37'0 0.1
2018-Jul-15 22:28N 54°31' E 018°37'0 0.0
2018-Jul-15 21:58N 54°31' E 018°37'0 0.0
2018-Jul-15 21:28N 54°31' E 018°37'0 0.0
2018-Jul-15 20:59N 54°31' E 018°37'0 0.0
2018-Jul-15 20:28N 54°31' E 018°37'0 0.0
2018-Jul-15 19:58N 54°31' E 018°37'0 0.0
2018-Jul-15 19:28N 54°31' E 018°37'0 0.0
2018-Jul-15 18:58N 54°31' E 018°37'0 0.0
2018-Jul-15 18:28N 54°31' E 018°37'0 0.0
2018-Jul-15 17:58N 54°31' E 018°37'0 0.0
2018-Jul-15 17:28N 54°31' E 018°37'0 0.0
2018-Jul-15 16:58N 54°31' E 018°37'0 0.0
2018-Jul-15 16:28N 54°31' E 018°37'0 0.1
2018-Jul-15 15:58N 54°31' E 018°37'0 0.1
2018-Jul-15 15:28N 54°31' E 018°37'0 0.0
2018-Jul-15 14:58N 54°31' E 018°37'0 0.1
2018-Jul-15 14:25N 54°31' E 018°37'0 0.0
2018-Jul-15 13:58N 54°31' E 018°37'0 0.1
2018-Jul-15 13:28N 54°31' E 018°37'0 0.1
2018-Jul-15 12:58N 54°31' E 018°37'0 0.1
2018-Jul-15 12:28N 54°31' E 018°37'0 0.1
2018-Jul-15 11:58N 54°31' E 018°37'0 0.0
2018-Jul-15 11:25N 54°31' E 018°37'0 0.0
2018-Jul-15 10:58N 54°31' E 018°37'0 0.1
2018-Jul-15 10:28N 54°31' E 018°37'0 0.1
2018-Jul-15 09:58N 54°31' E 018°37'0 0.0
2018-Jul-15 09:28N 54°31' E 018°37'0 0.0
2018-Jul-15 08:58N 54°31' E 018°37'0 0.0
2018-Jul-15 08:28N 54°31' E 018°37'0 0.1
2018-Jul-15 07:58N 54°31' E 018°37'0 0.0
2018-Jul-15 07:28N 54°31' E 018°37'0 0.0
2018-Jul-15 06:58N 54°31' E 018°37'0 0.1
2018-Jul-15 06:28N 54°31' E 018°37'0 0.0
2018-Jul-15 05:55N 54°31' E 018°37'0 0.1
2018-Jul-15 05:28N 54°31' E 018°37'0 0.1
2018-Jul-15 04:58N 54°31' E 018°37'0 0.1
2018-Jul-15 04:28N 54°31' E 018°37'0 0.0
2018-Jul-15 03:58N 54°31' E 018°37'0 0.0
2018-Jul-15 03:25N 54°31' E 018°37'0 0.0
2018-Jul-15 02:58N 54°31' E 018°37'0 0.0
2018-Jul-15 02:28N 54°31' E 018°37'0 0.0
2018-Jul-15 01:55N 54°31' E 018°37'0 0.1
2018-Jul-15 01:28N 54°31' E 018°37'0 0.1
2018-Jul-15 00:58N 54°31' E 018°37'0 0.1
2018-Jul-15 00:28N 54°31' E 018°37'0 0.0
2018-Jul-14 23:58N 54°31' E 018°37'0 0.1
2018-Jul-14 23:25N 54°31' E 018°37'0 0.1
2018-Jul-14 22:58N 54°31' E 018°37'0 0.1
2018-Jul-14 22:28N 54°31' E 018°37'0 0.1
2018-Jul-14 21:58N 54°31' E 018°37'0 0.1
2018-Jul-14 21:30N 54°31' E 018°37'0 0.0
2018-Jul-14 20:58N 54°31' E 018°37'0 0.1
2018-Jul-14 20:28N 54°31' E 018°37'0 0.1
2018-Jul-14 19:55N 54°31' E 018°37'0 0.1
2018-Jul-14 19:28N 54°31' E 018°37'0 0.1
2018-Jul-14 18:55N 54°31' E 018°37'0 0.2
2018-Jul-14 18:30N 54°31' E 018°37'4 8.6
2018-Jul-14 18:00N 54°32' E 018°44'5 9.5
2018-Jul-14 17:30N 54°34' E 018°51'510.7
2018-Jul-14 17:00N 54°39' E 018°55'4 6.9
2018-Jul-14 16:29N 54°43' E 018°53'3 6.7
2018-Jul-14 16:00N 54°45' E 018°50'3 6.7
2018-Jul-14 15:30N 54°47' E 018°45'3 6.8
2018-Jul-14 15:00N 54°50' E 018°41'3 6.9
2018-Jul-14 14:30N 54°52' E 018°36'6 6.4
2018-Jul-14 13:30N 54°53' E 018°25'3 6.5
2018-Jul-14 13:00N 54°53' E 018°20'3 6.6
2018-Jul-14 12:30N 54°53' E 018°14'3 6.5
2018-Jul-14 12:00N 54°53' E 018°08'3 6.5
2018-Jul-14 11:30N 54°53' E 018°03'3 6.5
2018-Jul-14 11:00N 54°52' E 017°57'3 6.5
2018-Jul-14 10:30N 54°52' E 017°52'3 6.4
2018-Jul-14 10:00N 54°52' E 017°46'3 6.5
2018-Jul-14 09:30N 54°52' E 017°40'3 6.5
2018-Jul-14 09:00N 54°52' E 017°35'3 6.7
2018-Jul-14 08:30N 54°52' E 017°29'3 6.6
2018-Jul-14 08:00N 54°52' E 017°23'3 6.6
2018-Jul-14 07:30N 54°51' E 017°18'3 6.2
2018-Jul-14 07:00N 54°51' E 017°12'3 5.7
2018-Jul-14 06:28N 54°50' E 017°07'3 5.7
2018-Jul-14 05:59N 54°49' E 017°02'3 5.7
2018-Jul-14 05:30N 54°49' E 016°58'3 5.7
2018-Jul-14 05:00N 54°48' E 016°53'3 5.8
2018-Jul-14 04:30N 54°48' E 016°48'3 5.9
2018-Jul-14 04:00N 54°47' E 016°43'3 5.9
2018-Jul-14 03:30N 54°46' E 016°38'3 5.9
2018-Jul-14 03:00N 54°46' E 016°33'3 5.9
2018-Jul-14 02:30N 54°46' E 016°28'3 5.9
2018-Jul-14 02:00N 54°45' E 016°23'3 5.9
2018-Jul-14 01:30N 54°45' E 016°18'3 5.8
2018-Jul-14 01:00N 54°45' E 016°13'3 5.8
2018-Jul-14 00:30N 54°44' E 016°08'6 5.8
2018-Jul-13 23:29N 54°44' E 015°58'3 5.8
2018-Jul-13 23:00N 54°44' E 015°53'3 5.9
2018-Jul-13 22:30N 54°45' E 015°48'3 6.0
2018-Jul-13 22:00N 54°45' E 015°42'3 6.1
2018-Jul-13 21:29N 54°46' E 015°37'4 6.1
2018-Jul-13 20:50N 54°46' E 015°30'3 6.1
2018-Jul-13 20:23N 54°46' E 015°26'2 6.1
2018-Jul-13 20:00N 54°45' E 015°21'3 6.0
2018-Jul-13 19:30N 54°45' E 015°16'3 5.9
2018-Jul-13 19:00N 54°45' E 015°11'3 5.9
2018-Jul-13 18:30N 54°45' E 015°06'3 5.9
2018-Jul-13 18:00N 54°45' E 015°01'3 5.8
2018-Jul-13 17:30N 54°45' E 014°56'3 5.7
2018-Jul-13 17:00N 54°44' E 014°51'3 5.7
2018-Jul-13 16:30N 54°44' E 014°46'3 5.7
2018-Jul-13 16:00N 54°44' E 014°41'3 5.7
2018-Jul-13 15:30N 54°44' E 014°36'3 5.8
2018-Jul-13 15:00N 54°44' E 014°31'3 5.9
2018-Jul-13 14:30N 54°44' E 014°26'6 5.9
2018-Jul-13 13:30N 54°44' E 014°16'3 6.0
2018-Jul-13 13:00N 54°44' E 014°11'4 6.1
2018-Jul-13 12:23N 54°43' E 014°04'3 5.9
2018-Jul-13 11:48N 54°44' E 013°58'2 6.3
2018-Jul-13 11:29N 54°45' E 013°55'5 6.1
2018-Jul-13 10:41N 54°48' E 013°48'2 6.0
2018-Jul-13 10:18N 54°50' E 013°45'2 6.1
2018-Jul-13 10:00N 54°51' E 013°43'3 6.1
2018-Jul-13 09:29N 54°53' E 013°39'14 6.8
2018-Jul-13 07:26N 55°02' E 013°20'4 6.2
2018-Jul-13 06:48N 55°04' E 013°15'2 6.1
2018-Jul-13 06:25N 55°06' E 013°12'2 6.0
2018-Jul-13 06:00N 55°07' E 013°08'3 5.8
2018-Jul-13 05:30N 55°09' E 013°04'510.0
2018-Jul-13 05:00N 55°12' E 012°57'510.5
2018-Jul-13 04:30N 55°15' E 012°50'510.2
2018-Jul-13 04:00N 55°17' E 012°42'5 9.2
2018-Jul-13 03:30N 55°22' E 012°39'510.8
2018-Jul-13 03:00N 55°27' E 012°40'510.6
2018-Jul-13 02:30N 55°32' E 012°42'510.3
2018-Jul-13 02:00N 55°37' E 012°42'510.4
2018-Jul-13 01:30N 55°42' E 012°41'510.4
2018-Jul-13 01:00N 55°48' E 012°41'510.2
2018-Jul-13 00:30N 55°53' E 012°39'510.2
2018-Jul-13 00:00N 55°58' E 012°38'510.0
2018-Jul-12 23:30N 56°03' E 012°38'4 8.7
2018-Jul-12 23:00N 56°06' E 012°33'5 9.3
2018-Jul-12 22:30N 56°09' E 012°26'5 9.5
2018-Jul-12 21:59N 56°12' E 012°19'4 9.2
2018-Jul-12 21:30N 56°14' E 012°12'5 9.7
2018-Jul-12 21:00N 56°17' E 012°06'510.6
2018-Jul-12 20:30N 56°22' E 012°02'611.1
2018-Jul-12 20:00N 56°27' E 011°59'611.3
2018-Jul-12 19:29N 56°33' E 011°56'511.2
2018-Jul-12 19:00N 56°38' E 011°54'611.3
2018-Jul-12 18:29N 56°44' E 011°51'511.5
2018-Jul-12 18:00N 56°49' E 011°49'611.2
2018-Jul-12 17:30N 56°54' E 011°46'611.3
2018-Jul-12 17:00N 56°60' E 011°42'611.3
2018-Jul-12 16:30N 57°05' E 011°39'611.3
2018-Jul-12 16:00N 57°10' E 011°35'611.4
2018-Jul-12 15:30N 57°16' E 011°31'611.1
2018-Jul-12 15:00N 57°21' E 011°28'510.5
2018-Jul-12 14:30N 57°26' E 011°24'510.2
2018-Jul-12 14:00N 57°30' E 011°19'510.2
2018-Jul-12 13:30N 57°34' E 011°12'510.3
2018-Jul-12 13:00N 57°37' E 011°05'510.3
2018-Jul-12 12:30N 57°40' E 010°58'510.4
2018-Jul-12 12:00N 57°44' E 010°51'510.5
2018-Jul-12 11:30N 57°46' E 010°42'611.0
2018-Jul-12 11:00N 57°47' E 010°32'611.4
2018-Jul-12 10:30N 57°47' E 010°21'611.4
2018-Jul-12 10:00N 57°47' E 010°10'611.7
2018-Jul-12 09:30N 57°48' E 009°59'511.0
2018-Jul-12 09:00N 57°49' E 009°49'610.9
2018-Jul-12 08:28N 57°50' E 009°39'511.2
2018-Jul-12 08:00N 57°50' E 009°29'711.4
2018-Jul-12 07:24N 57°51' E 009°16'511.5
2018-Jul-12 07:00N 57°51' E 009°07'611.4
2018-Jul-12 06:28N 57°51' E 008°56'611.1
2018-Jul-12 05:56N 57°52' E 008°45'510.8
2018-Jul-12 05:27N 57°52' E 008°35'510.5
2018-Jul-12 05:00N 57°53' E 008°26'510.5
2018-Jul-12 04:30N 57°53' E 008°16'510.0
2018-Jul-12 04:00N 57°53' E 008°07'5 9.6
2018-Jul-12 03:30N 57°54' E 007°58'5 9.5
2018-Jul-12 03:00N 57°54' E 007°49'5 9.5
2018-Jul-12 02:30N 57°55' E 007°40'5 9.6
2018-Jul-12 02:00N 57°55' E 007°31'5 9.8
2018-Jul-12 01:30N 57°55' E 007°22'510.0
2018-Jul-12 01:00N 57°55' E 007°12'510.0
2018-Jul-12 00:30N 57°56' E 007°03'5 9.7
2018-Jul-12 00:00N 57°57' E 006°54'5 9.5
2018-Jul-11 23:30N 57°58' E 006°46'5 9.4
2018-Jul-11 23:00N 58°00' E 006°38'5 9.4
2018-Jul-11 22:29N 58°03' E 006°30'5 9.4
2018-Jul-11 22:00N 58°06' E 006°24'5 9.4
2018-Jul-11 21:30N 58°10' E 006°18'5 9.1
2018-Jul-11 21:00N 58°13' E 006°12'4 9.0
2018-Jul-11 20:30N 58°16' E 006°05'5 9.2
2018-Jul-11 20:00N 58°19' E 005°59'4 8.7
2018-Jul-11 19:29N 58°23' E 005°54'4 8.6
2018-Jul-11 19:00N 58°26' E 005°48'4 8.7
2018-Jul-11 18:30N 58°29' E 005°43'4 8.7
2018-Jul-11 18:00N 58°32' E 005°37'4 8.4
2018-Jul-11 17:30N 58°35' E 005°32'510.0
2018-Jul-11 17:00N 58°40' E 005°27'510.7
2018-Jul-11 16:30N 58°44' E 005°22'4 7.9
2018-Jul-11 16:00N 58°47' E 005°17'3 6.2
2018-Jul-11 15:30N 58°50' E 005°14'3 6.8
2018-Jul-11 15:00N 58°53' E 005°10'3 6.8
2018-Jul-11 14:30N 58°55' E 005°07'3 6.9
2018-Jul-11 14:00N 58°58' E 005°03'3 6.7
2018-Jul-11 13:30N 59°01' E 005°00'3 6.8
2018-Jul-11 13:00N 59°04' E 004°57'3 6.8
2018-Jul-11 12:29N 59°07' E 004°53'3 6.8
2018-Jul-11 12:00N 59°10' E 004°49'3 7.0
2018-Jul-11 11:30N 59°13' E 004°45'4 6.5
2018-Jul-11 10:57N 59°16' E 004°42'4 6.8
2018-Jul-11 10:19N 59°20' E 004°42'3 6.7
2018-Jul-11 09:53N 59°23' E 004°42'13 6.8
2018-Jul-11 08:01N 59°36' E 004°40'011.9
2018-Jul-11 07:59N 59°36' E 004°41'612.1
2018-Jul-11 07:30N 59°42' E 004°41'611.5
2018-Jul-11 07:00N 59°48' E 004°41'611.0
2018-Jul-11 06:30N 59°53' E 004°40'510.7
2018-Jul-11 06:00N 59°59' E 004°39'510.8
2018-Jul-11 05:30N 60°04' E 004°39'510.7
2018-Jul-11 05:00N 60°09' E 004°38'510.5
2018-Jul-11 04:29N 60°15' E 004°36'510.6
2018-Jul-11 04:00N 60°20' E 004°34'610.9
2018-Jul-11 03:29N 60°25' E 004°32'510.7
2018-Jul-11 02:59N 60°31' E 004°30'510.6
2018-Jul-11 02:30N 60°35' E 004°28'510.5
2018-Jul-11 01:59N 60°41' E 004°25'510.8
2018-Jul-11 01:30N 60°46' E 004°23'510.8
2018-Jul-11 01:00N 60°51' E 004°20'510.6
2018-Jul-11 00:30N 60°56' E 004°18'510.6
2018-Jul-11 00:00N 61°02' E 004°19'510.7
2018-Jul-10 23:30N 61°07' E 004°21'510.5
2018-Jul-10 23:00N 61°12' E 004°23'510.9
2018-Jul-10 22:30N 61°17' E 004°25'510.9
2018-Jul-10 22:00N 61°23' E 004°27'610.9
2018-Jul-10 21:30N 61°28' E 004°28'510.9
2018-Jul-10 21:00N 61°34' E 004°29'611.0
2018-Jul-10 20:29N 61°39' E 004°31'511.0
2018-Jul-10 20:00N 61°44' E 004°35'610.9
2018-Jul-10 19:30N 61°49' E 004°39'611.1
2018-Jul-10 19:00N 61°55' E 004°43'511.0
2018-Jul-10 18:30N 61°60' E 004°47'611.2
2018-Jul-10 18:00N 62°05' E 004°52'611.3
2018-Jul-10 17:30N 62°10' E 004°57'611.0
2018-Jul-10 17:00N 62°15' E 005°03'510.8
2018-Jul-10 16:30N 62°19' E 005°11'510.8
2018-Jul-10 16:00N 62°23' E 005°19'611.2
2018-Jul-10 15:30N 62°27' E 005°27'510.9
2018-Jul-10 15:00N 62°30' E 005°36'610.7
2018-Jul-10 14:29N 62°28' E 005°47'5 9.4
2018-Jul-10 14:00N 62°27' E 005°57'4 7.4
2018-Jul-10 13:30N 62°28' E 006°04'4 7.6
2018-Jul-10 13:00N 62°32' E 006°08'0 0.0
2018-Jul-10 12:30N 62°32' E 006°08'0 0.0
2018-Jul-10 12:00N 62°32' E 006°08'0 0.0
2018-Jul-10 11:30N 62°32' E 006°08'0 0.0
2018-Jul-10 11:00N 62°32' E 006°08'0 0.0
2018-Jul-10 10:30N 62°32' E 006°08'0 0.0
2018-Jul-10 10:00N 62°32' E 006°08'0 0.0
2018-Jul-10 09:30N 62°32' E 006°08'0 0.0
2018-Jul-10 09:00N 62°32' E 006°08'0 0.0
2018-Jul-10 08:30N 62°32' E 006°08'0 0.0
2018-Jul-10 08:00N 62°32' E 006°08'0 0.0
2018-Jul-10 07:30N 62°32' E 006°08'0 0.0
2018-Jul-10 07:00N 62°32' E 006°08'0 0.0
2018-Jul-10 06:30N 62°32' E 006°08'0 0.0
2018-Jul-10 06:00N 62°32' E 006°08'0 0.0
2018-Jul-10 05:30N 62°32' E 006°08'0 0.0
2018-Jul-10 05:00N 62°32' E 006°08'0 0.0
2018-Jul-10 04:30N 62°32' E 006°08'0 0.0
2018-Jul-10 04:00N 62°32' E 006°08'0 0.0
2018-Jul-10 03:30N 62°32' E 006°08'0 0.0
2018-Jul-10 03:00N 62°32' E 006°08'0 0.0
2018-Jul-10 02:30N 62°32' E 006°08'0 0.0
2018-Jul-10 02:00N 62°32' E 006°08'0 0.0
2018-Jul-10 01:30N 62°32' E 006°08'0 0.0
2018-Jul-10 01:00N 62°32' E 006°08'0 0.0
2018-Jul-10 00:30N 62°32' E 006°08'0 0.0
2018-Jul-10 00:00N 62°32' E 006°08'0 0.0
2018-Jul-09 23:30N 62°32' E 006°08'0 0.0
2018-Jul-09 23:00N 62°32' E 006°08'0 0.0
2018-Jul-09 22:30N 62°32' E 006°08'0 0.0
2018-Jul-09 22:00N 62°32' E 006°08'0 0.0
2018-Jul-09 21:30N 62°32' E 006°08'0 0.0
2018-Jul-09 21:00N 62°32' E 006°08'0 0.0
2018-Jul-09 20:30N 62°32' E 006°08'0 0.0
2018-Jul-09 20:00N 62°32' E 006°08'0 0.0
2018-Jul-09 19:30N 62°32' E 006°08'0 0.0
2018-Jul-09 19:00N 62°32' E 006°08'0 0.0
2018-Jul-09 18:30N 62°32' E 006°08'0 0.0
2018-Jul-09 18:00N 62°32' E 006°08'0 0.0
2018-Jul-09 17:30N 62°32' E 006°08'0 0.0
2018-Jul-09 17:00N 62°32' E 006°08'0 0.0
2018-Jul-09 16:30N 62°32' E 006°08'0 0.0
2018-Jul-09 16:00N 62°32' E 006°08'0 0.0
2018-Jul-09 15:30N 62°32' E 006°08'0 0.0
2018-Jul-09 15:00N 62°32' E 006°08'0 0.0
2018-Jul-09 14:30N 62°32' E 006°08'0 0.0
2018-Jul-09 14:00N 62°32' E 006°08'0 0.0
2018-Jul-09 13:30N 62°32' E 006°08'0 0.0
2018-Jul-09 13:00N 62°32' E 006°08'0 0.0
2018-Jul-09 12:30N 62°32' E 006°08'0 0.0
2018-Jul-09 12:00N 62°32' E 006°08'0 0.0
2018-Jul-09 11:30N 62°32' E 006°08'0 0.0
2018-Jul-09 11:00N 62°32' E 006°08'0 0.0
2018-Jul-09 10:30N 62°32' E 006°08'0 0.0
2018-Jul-09 10:00N 62°32' E 006°08'0 0.0
2018-Jul-09 09:30N 62°32' E 006°08'0 0.0
2018-Jul-09 09:00N 62°32' E 006°08'0 0.0
2018-Jul-09 08:30N 62°32' E 006°08'0 0.0
2018-Jul-09 08:00N 62°32' E 006°08'0 0.0
2018-Jul-09 07:30N 62°32' E 006°08'0 0.0
2018-Jul-09 07:00N 62°32' E 006°08'0 0.0
2018-Jul-09 06:30N 62°32' E 006°08'0 0.0
2018-Jul-09 06:00N 62°32' E 006°08'1 1.3
2018-Jul-09 05:30N 62°31' E 006°09'5 9.5
2018-Jul-09 05:00N 62°27' E 006°02'1 2.8
2018-Jul-09 04:30N 62°27' E 005°59'1 1.8
2018-Jul-09 04:00N 62°27' E 005°57'3 5.3
2018-Jul-09 03:30N 62°28' E 005°52'3 5.7
2018-Jul-09 03:00N 62°29' E 005°46'3 5.5
2018-Jul-09 02:30N 62°30' E 005°41'3 5.3
2018-Jul-09 02:00N 62°31' E 005°35'  

Dump ship's entire track history